sensor_id;sensor_type;location;lat;lon;timestamp;P1;durP1;ratioP1;P2;durP2;ratioP2
21814;SDS011;11069;48.988;8.450;2023-07-16T00:00:27;5.03;;;2.60;;
21814;SDS011;11069;48.988;8.450;2023-07-16T00:02:53;3.88;;;2.65;;
21814;SDS011;11069;48.988;8.450;2023-07-16T00:05:19;4.95;;;2.97;;
21814;SDS011;11069;48.988;8.450;2023-07-16T00:07:44;4.10;;;2.72;;
21814;SDS011;11069;48.988;8.450;2023-07-16T00:10:10;5.65;;;2.95;;
21814;SDS011;11069;48.988;8.450;2023-07-16T00:12:36;3.78;;;2.80;;
21814;SDS011;11069;48.988;8.450;2023-07-16T00:15:01;5.25;;;2.92;;
21814;SDS011;11069;48.988;8.450;2023-07-16T00:17:27;4.45;;;3.08;;
21814;SDS011;11069;48.988;8.450;2023-07-16T00:19:52;3.53;;;3.05;;
21814;SDS011;11069;48.988;8.450;2023-07-16T00:22:18;3.75;;;3.00;;
21814;SDS011;11069;48.988;8.450;2023-07-16T00:24:44;2.42;;;2.22;;
21814;SDS011;11069;48.988;8.450;2023-07-16T00:27:09;3.28;;;2.45;;
21814;SDS011;11069;48.988;8.450;2023-07-16T00:29:35;3.10;;;2.80;;
21814;SDS011;11069;48.988;8.450;2023-07-16T00:32:00;3.42;;;2.60;;
21814;SDS011;11069;48.988;8.450;2023-07-16T00:34:26;3.58;;;2.85;;
21814;SDS011;11069;48.988;8.450;2023-07-16T00:36:51;3.15;;;2.17;;
21814;SDS011;11069;48.988;8.450;2023-07-16T00:39:17;4.93;;;2.58;;
21814;SDS011;11069;48.988;8.450;2023-07-16T00:41:42;3.75;;;2.50;;
21814;SDS011;11069;48.988;8.450;2023-07-16T00:44:08;3.13;;;2.53;;
21814;SDS011;11069;48.988;8.450;2023-07-16T00:46:33;3.70;;;2.35;;
21814;SDS011;11069;48.988;8.450;2023-07-16T00:48:59;3.28;;;2.20;;
21814;SDS011;11069;48.988;8.450;2023-07-16T00:51:26;3.13;;;2.25;;
21814;SDS011;11069;48.988;8.450;2023-07-16T00:53:52;4.20;;;2.40;;
21814;SDS011;11069;48.988;8.450;2023-07-16T00:56:19;3.50;;;2.58;;
21814;SDS011;11069;48.988;8.450;2023-07-16T00:58:44;3.38;;;2.10;;
21814;SDS011;11069;48.988;8.450;2023-07-16T01:01:10;3.35;;;1.98;;
21814;SDS011;11069;48.988;8.450;2023-07-16T01:03:36;2.95;;;2.50;;
21814;SDS011;11069;48.988;8.450;2023-07-16T01:08:47;2.90;;;2.60;;
21814;SDS011;11069;48.988;8.450;2023-07-16T01:11:20;2.30;;;2.10;;
21814;SDS011;11069;48.988;8.450;2023-07-16T01:13:47;3.47;;;2.40;;
21814;SDS011;11069;48.988;8.450;2023-07-16T01:16:19;2.30;;;2.10;;
21814;SDS011;11069;48.988;8.450;2023-07-16T01:18:46;3.20;;;2.42;;
21814;SDS011;11069;48.988;8.450;2023-07-16T01:21:12;3.40;;;2.15;;
21814;SDS011;11069;48.988;8.450;2023-07-16T01:31:57;3.88;;;2.28;;
21814;SDS011;11069;48.988;8.450;2023-07-16T01:34:26;2.80;;;2.40;;
21814;SDS011;11069;48.988;8.450;2023-07-16T01:36:55;2.25;;;2.03;;
21814;SDS011;11069;48.988;8.450;2023-07-16T01:39:20;2.72;;;2.08;;
21814;SDS011;11069;48.988;8.450;2023-07-16T01:41:46;3.72;;;2.10;;
21814;SDS011;11069;48.988;8.450;2023-07-16T01:44:12;2.75;;;2.10;;
21814;SDS011;11069;48.988;8.450;2023-07-16T01:46:37;2.55;;;1.83;;
21814;SDS011;11069;48.988;8.450;2023-07-16T01:49:03;2.90;;;2.15;;
21814;SDS011;11069;48.988;8.450;2023-07-16T01:51:29;2.17;;;1.95;;
21814;SDS011;11069;48.988;8.450;2023-07-16T01:53:54;2.05;;;1.65;;
21814;SDS011;11069;48.988;8.450;2023-07-16T01:56:20;2.83;;;1.92;;
21814;SDS011;11069;48.988;8.450;2023-07-16T01:58:45;2.90;;;1.75;;
21814;SDS011;11069;48.988;8.450;2023-07-16T02:01:11;2.28;;;1.80;;
21814;SDS011;11069;48.988;8.450;2023-07-16T02:03:36;6.60;;;2.25;;
21814;SDS011;11069;48.988;8.450;2023-07-16T02:06:02;3.13;;;2.10;;
21814;SDS011;11069;48.988;8.450;2023-07-16T02:08:27;3.85;;;2.20;;
21814;SDS011;11069;48.988;8.450;2023-07-16T02:10:53;2.70;;;1.77;;
21814;SDS011;11069;48.988;8.450;2023-07-16T02:13:19;3.10;;;2.20;;
21814;SDS011;11069;48.988;8.450;2023-07-16T02:15:44;3.38;;;2.25;;
21814;SDS011;11069;48.988;8.450;2023-07-16T02:18:10;2.95;;;2.08;;
21814;SDS011;11069;48.988;8.450;2023-07-16T02:20:36;2.58;;;2.22;;
21814;SDS011;11069;48.988;8.450;2023-07-16T02:23:01;2.80;;;2.08;;
21814;SDS011;11069;48.988;8.450;2023-07-16T02:25:27;2.33;;;2.00;;
21814;SDS011;11069;48.988;8.450;2023-07-16T02:27:53;3.30;;;2.20;;
21814;SDS011;11069;48.988;8.450;2023-07-16T02:30:18;2.45;;;2.17;;
21814;SDS011;11069;48.988;8.450;2023-07-16T02:32:44;2.55;;;2.20;;
21814;SDS011;11069;48.988;8.450;2023-07-16T02:35:10;3.35;;;2.10;;
21814;SDS011;11069;48.988;8.450;2023-07-16T02:37:35;2.67;;;1.98;;
21814;SDS011;11069;48.988;8.450;2023-07-16T02:40:01;3.72;;;2.10;;
21814;SDS011;11069;48.988;8.450;2023-07-16T02:42:27;3.67;;;2.08;;
21814;SDS011;11069;48.988;8.450;2023-07-16T02:44:53;2.50;;;2.20;;
21814;SDS011;11069;48.988;8.450;2023-07-16T02:47:19;2.75;;;2.28;;
21814;SDS011;11069;48.988;8.450;2023-07-16T02:49:45;2.55;;;2.15;;
21814;SDS011;11069;48.988;8.450;2023-07-16T02:52:10;2.50;;;1.88;;
21814;SDS011;11069;48.988;8.450;2023-07-16T02:54:36;3.05;;;2.10;;
21814;SDS011;11069;48.988;8.450;2023-07-16T02:57:01;2.50;;;2.00;;
21814;SDS011;11069;48.988;8.450;2023-07-16T02:59:27;2.90;;;2.20;;
21814;SDS011;11069;48.988;8.450;2023-07-16T03:01:53;2.65;;;2.15;;
21814;SDS011;11069;48.988;8.450;2023-07-16T03:04:19;2.10;;;1.75;;
21814;SDS011;11069;48.988;8.450;2023-07-16T03:06:44;3.03;;;2.08;;
21814;SDS011;11069;48.988;8.450;2023-07-16T03:09:10;2.25;;;2.00;;
21814;SDS011;11069;48.988;8.450;2023-07-16T03:11:36;2.75;;;2.00;;
21814;SDS011;11069;48.988;8.450;2023-07-16T03:14:01;2.10;;;1.90;;
21814;SDS011;11069;48.988;8.450;2023-07-16T03:16:27;2.25;;;2.05;;
21814;SDS011;11069;48.988;8.450;2023-07-16T03:18:53;3.53;;;1.80;;
21814;SDS011;11069;48.988;8.450;2023-07-16T03:21:18;3.83;;;2.13;;
21814;SDS011;11069;48.988;8.450;2023-07-16T03:23:44;3.03;;;2.03;;
21814;SDS011;11069;48.988;8.450;2023-07-16T03:26:09;2.58;;;2.20;;
21814;SDS011;11069;48.988;8.450;2023-07-16T03:28:35;2.83;;;1.95;;
21814;SDS011;11069;48.988;8.450;2023-07-16T03:31:01;2.50;;;2.15;;
21814;SDS011;11069;48.988;8.450;2023-07-16T03:33:26;2.47;;;1.83;;
21814;SDS011;11069;48.988;8.450;2023-07-16T03:35:52;4.20;;;2.08;;
21814;SDS011;11069;48.988;8.450;2023-07-16T03:38:17;2.10;;;1.90;;
21814;SDS011;11069;48.988;8.450;2023-07-16T03:40:45;2.88;;;1.90;;
21814;SDS011;11069;48.988;8.450;2023-07-16T03:43:12;2.47;;;2.28;;
21814;SDS011;11069;48.988;8.450;2023-07-16T03:45:38;5.20;;;2.38;;
21814;SDS011;11069;48.988;8.450;2023-07-16T03:48:04;3.55;;;2.03;;
21814;SDS011;11069;48.988;8.450;2023-07-16T03:50:30;2.05;;;1.85;;
21814;SDS011;11069;48.988;8.450;2023-07-16T03:52:55;4.85;;;1.92;;
21814;SDS011;11069;48.988;8.450;2023-07-16T03:55:21;2.53;;;2.10;;
21814;SDS011;11069;48.988;8.450;2023-07-16T03:57:47;3.80;;;2.13;;
21814;SDS011;11069;48.988;8.450;2023-07-16T04:00:12;3.55;;;2.20;;
21814;SDS011;11069;48.988;8.450;2023-07-16T04:02:38;3.33;;;2.08;;
21814;SDS011;11069;48.988;8.450;2023-07-16T04:05:04;2.90;;;2.30;;
21814;SDS011;11069;48.988;8.450;2023-07-16T04:07:30;2.50;;;1.85;;
21814;SDS011;11069;48.988;8.450;2023-07-16T04:09:56;3.28;;;2.15;;
21814;SDS011;11069;48.988;8.450;2023-07-16T04:12:21;2.75;;;2.20;;
21814;SDS011;11069;48.988;8.450;2023-07-16T04:14:47;2.97;;;1.95;;
21814;SDS011;11069;48.988;8.450;2023-07-16T04:17:12;2.90;;;1.90;;
21814;SDS011;11069;48.988;8.450;2023-07-16T04:19:38;3.72;;;2.08;;
21814;SDS011;11069;48.988;8.450;2023-07-16T04:22:04;4.47;;;2.22;;
21814;SDS011;11069;48.988;8.450;2023-07-16T04:24:30;4.20;;;2.15;;
21814;SDS011;11069;48.988;8.450;2023-07-16T04:26:56;2.00;;;1.80;;
21814;SDS011;11069;48.988;8.450;2023-07-16T04:29:22;3.50;;;2.30;;
21814;SDS011;11069;48.988;8.450;2023-07-16T04:31:48;4.30;;;2.10;;
21814;SDS011;11069;48.988;8.450;2023-07-16T04:34:14;4.25;;;2.42;;
21814;SDS011;11069;48.988;8.450;2023-07-16T04:36:41;4.75;;;2.40;;
21814;SDS011;11069;48.988;8.450;2023-07-16T04:39:08;3.03;;;2.30;;
21814;SDS011;11069;48.988;8.450;2023-07-16T04:41:33;2.67;;;1.80;;
21814;SDS011;11069;48.988;8.450;2023-07-16T04:43:59;2.22;;;2.03;;
21814;SDS011;11069;48.988;8.450;2023-07-16T04:46:24;3.35;;;2.13;;
21814;SDS011;11069;48.988;8.450;2023-07-16T04:48:50;4.03;;;1.90;;
21814;SDS011;11069;48.988;8.450;2023-07-16T04:51:16;3.97;;;2.10;;
21814;SDS011;11069;48.988;8.450;2023-07-16T04:53:41;3.67;;;2.05;;
21814;SDS011;11069;48.988;8.450;2023-07-16T04:56:13;2.78;;;1.88;;
21814;SDS011;11069;48.988;8.450;2023-07-16T04:58:39;3.50;;;2.25;;
21814;SDS011;11069;48.988;8.450;2023-07-16T05:01:05;2.00;;;1.85;;
21814;SDS011;11069;48.988;8.450;2023-07-16T05:03:32;3.58;;;1.95;;
21814;SDS011;11069;48.988;8.450;2023-07-16T05:05:57;2.92;;;1.75;;
21814;SDS011;11069;48.988;8.450;2023-07-16T05:08:23;3.60;;;1.83;;
21814;SDS011;11069;48.988;8.450;2023-07-16T05:10:48;2.38;;;2.05;;
21814;SDS011;11069;48.988;8.450;2023-07-16T05:13:14;2.75;;;1.95;;
21814;SDS011;11069;48.988;8.450;2023-07-16T05:15:40;3.90;;;2.10;;
21814;SDS011;11069;48.988;8.450;2023-07-16T05:18:11;2.80;;;2.03;;
21814;SDS011;11069;48.988;8.450;2023-07-16T05:20:39;1.80;;;1.70;;
21814;SDS011;11069;48.988;8.450;2023-07-16T05:23:05;3.15;;;1.88;;
21814;SDS011;11069;48.988;8.450;2023-07-16T05:25:30;3.25;;;2.03;;
21814;SDS011;11069;48.988;8.450;2023-07-16T05:27:56;3.25;;;2.00;;
21814;SDS011;11069;48.988;8.450;2023-07-16T05:30:22;3.15;;;2.00;;
21814;SDS011;11069;48.988;8.450;2023-07-16T05:32:47;4.22;;;1.90;;
21814;SDS011;11069;48.988;8.450;2023-07-16T05:35:13;3.63;;;2.03;;
21814;SDS011;11069;48.988;8.450;2023-07-16T05:37:38;3.78;;;1.83;;
21814;SDS011;11069;48.988;8.450;2023-07-16T05:40:04;3.10;;;1.80;;
21814;SDS011;11069;48.988;8.450;2023-07-16T05:42:30;2.20;;;1.60;;
21814;SDS011;11069;48.988;8.450;2023-07-16T05:44:56;3.30;;;1.55;;
21814;SDS011;11069;48.988;8.450;2023-07-16T05:47:21;2.13;;;1.40;;
21814;SDS011;11069;48.988;8.450;2023-07-16T05:49:47;5.35;;;1.70;;
21814;SDS011;11069;48.988;8.450;2023-07-16T05:52:13;2.85;;;1.50;;
21814;SDS011;11069;48.988;8.450;2023-07-16T05:54:38;2.55;;;1.58;;
21814;SDS011;11069;48.988;8.450;2023-07-16T05:57:04;3.03;;;1.67;;
21814;SDS011;11069;48.988;8.450;2023-07-16T05:59:30;2.03;;;1.73;;
21814;SDS011;11069;48.988;8.450;2023-07-16T06:01:59;1.80;;;1.45;;
21814;SDS011;11069;48.988;8.450;2023-07-16T06:04:25;2.72;;;1.95;;
21814;SDS011;11069;48.988;8.450;2023-07-16T06:06:50;2.70;;;1.60;;
21814;SDS011;11069;48.988;8.450;2023-07-16T06:09:16;3.45;;;1.98;;
21814;SDS011;11069;48.988;8.450;2023-07-16T06:11:42;6.32;;;1.80;;
21814;SDS011;11069;48.988;8.450;2023-07-16T06:14:08;2.95;;;1.60;;
21814;SDS011;11069;48.988;8.450;2023-07-16T06:16:33;5.47;;;1.73;;
21814;SDS011;11069;48.988;8.450;2023-07-16T06:18:59;1.50;;;1.40;;
21814;SDS011;11069;48.988;8.450;2023-07-16T06:21:24;1.65;;;1.33;;
21814;SDS011;11069;48.988;8.450;2023-07-16T06:23:50;2.88;;;1.40;;
21814;SDS011;11069;48.988;8.450;2023-07-16T06:26:15;3.03;;;1.30;;
21814;SDS011;11069;48.988;8.450;2023-07-16T06:28:41;1.45;;;1.27;;
21814;SDS011;11069;48.988;8.450;2023-07-16T06:31:06;2.45;;;1.48;;
21814;SDS011;11069;48.988;8.450;2023-07-16T06:33:32;1.95;;;1.40;;
21814;SDS011;11069;48.988;8.450;2023-07-16T06:35:59;2.70;;;1.50;;
21814;SDS011;11069;48.988;8.450;2023-07-16T06:38:24;2.80;;;1.38;;
21814;SDS011;11069;48.988;8.450;2023-07-16T06:40:50;3.40;;;1.50;;
21814;SDS011;11069;48.988;8.450;2023-07-16T06:43:16;2.50;;;1.25;;
21814;SDS011;11069;48.988;8.450;2023-07-16T06:45:42;2.20;;;1.50;;
21814;SDS011;11069;48.988;8.450;2023-07-16T06:48:08;4.05;;;1.40;;
21814;SDS011;11069;48.988;8.450;2023-07-16T06:50:33;4.47;;;1.30;;
21814;SDS011;11069;48.988;8.450;2023-07-16T06:52:59;3.22;;;1.35;;
21814;SDS011;11069;48.988;8.450;2023-07-16T06:55:25;2.33;;;1.27;;
21814;SDS011;11069;48.988;8.450;2023-07-16T06:57:50;3.28;;;1.50;;
21814;SDS011;11069;48.988;8.450;2023-07-16T07:00:16;4.22;;;1.17;;
21814;SDS011;11069;48.988;8.450;2023-07-16T07:02:43;1.92;;;1.30;;
21814;SDS011;11069;48.988;8.450;2023-07-16T07:05:09;2.38;;;1.30;;
21814;SDS011;11069;48.988;8.450;2023-07-16T07:07:34;3.42;;;1.55;;
21814;SDS011;11069;48.988;8.450;2023-07-16T07:10:00;4.93;;;1.48;;
21814;SDS011;11069;48.988;8.450;2023-07-16T07:12:26;5.25;;;2.00;;
21814;SDS011;11069;48.988;8.450;2023-07-16T07:14:52;2.80;;;1.45;;
21814;SDS011;11069;48.988;8.450;2023-07-16T07:17:17;2.50;;;1.20;;
21814;SDS011;11069;48.988;8.450;2023-07-16T07:19:43;3.78;;;1.77;;
21814;SDS011;11069;48.988;8.450;2023-07-16T07:22:09;4.68;;;1.60;;
21814;SDS011;11069;48.988;8.450;2023-07-16T07:24:34;3.70;;;1.60;;
21814;SDS011;11069;48.988;8.450;2023-07-16T07:27:00;3.78;;;1.50;;
21814;SDS011;11069;48.988;8.450;2023-07-16T07:29:26;3.40;;;1.65;;
21814;SDS011;11069;48.988;8.450;2023-07-16T07:31:52;2.45;;;1.50;;
21814;SDS011;11069;48.988;8.450;2023-07-16T07:34:18;2.72;;;1.38;;
21814;SDS011;11069;48.988;8.450;2023-07-16T07:36:44;2.60;;;1.17;;
21814;SDS011;11069;48.988;8.450;2023-07-16T07:39:09;2.65;;;1.25;;
21814;SDS011;11069;48.988;8.450;2023-07-16T07:41:35;2.75;;;1.55;;
21814;SDS011;11069;48.988;8.450;2023-07-16T07:44:00;2.15;;;1.48;;
21814;SDS011;11069;48.988;8.450;2023-07-16T07:46:26;4.00;;;1.55;;
21814;SDS011;11069;48.988;8.450;2023-07-16T07:48:52;3.10;;;1.33;;
21814;SDS011;11069;48.988;8.450;2023-07-16T07:51:19;2.53;;;1.10;;
21814;SDS011;11069;48.988;8.450;2023-07-16T07:53:44;6.82;;;1.40;;
21814;SDS011;11069;48.988;8.450;2023-07-16T07:56:10;2.42;;;1.48;;
21814;SDS011;11069;48.988;8.450;2023-07-16T07:58:36;1.88;;;1.30;;
21814;SDS011;11069;48.988;8.450;2023-07-16T08:01:05;2.80;;;1.73;;
21814;SDS011;11069;48.988;8.450;2023-07-16T08:03:31;2.17;;;1.30;;
21814;SDS011;11069;48.988;8.450;2023-07-16T08:05:57;4.40;;;1.83;;
21814;SDS011;11069;48.988;8.450;2023-07-16T08:08:22;4.30;;;1.50;;
21814;SDS011;11069;48.988;8.450;2023-07-16T08:10:48;2.20;;;1.33;;
21814;SDS011;11069;48.988;8.450;2023-07-16T08:13:14;4.10;;;1.30;;
21814;SDS011;11069;48.988;8.450;2023-07-16T08:15:39;4.20;;;1.58;;
21814;SDS011;11069;48.988;8.450;2023-07-16T08:18:05;2.15;;;1.20;;
21814;SDS011;11069;48.988;8.450;2023-07-16T08:20:30;2.22;;;1.38;;
21814;SDS011;11069;48.988;8.450;2023-07-16T08:22:56;1.67;;;1.38;;
21814;SDS011;11069;48.988;8.450;2023-07-16T08:25:22;3.72;;;1.65;;
21814;SDS011;11069;48.988;8.450;2023-07-16T08:27:47;3.72;;;1.60;;
21814;SDS011;11069;48.988;8.450;2023-07-16T08:30:13;2.28;;;1.27;;
21814;SDS011;11069;48.988;8.450;2023-07-16T08:32:39;3.30;;;1.60;;
21814;SDS011;11069;48.988;8.450;2023-07-16T08:35:05;2.42;;;1.38;;
21814;SDS011;11069;48.988;8.450;2023-07-16T08:37:31;2.85;;;1.58;;
21814;SDS011;11069;48.988;8.450;2023-07-16T08:39:56;5.75;;;1.73;;
21814;SDS011;11069;48.988;8.450;2023-07-16T08:42:22;4.22;;;1.45;;
21814;SDS011;11069;48.988;8.450;2023-07-16T08:44:49;1.48;;;1.27;;
21814;SDS011;11069;48.988;8.450;2023-07-16T08:47:17;3.63;;;1.58;;
21814;SDS011;11069;48.988;8.450;2023-07-16T08:49:48;4.68;;;1.25;;
21814;SDS011;11069;48.988;8.450;2023-07-16T08:52:20;3.22;;;1.90;;
21814;SDS011;11069;48.988;8.450;2023-07-16T08:54:46;2.95;;;1.60;;
21814;SDS011;11069;48.988;8.450;2023-07-16T08:57:13;2.20;;;1.40;;
21814;SDS011;11069;48.988;8.450;2023-07-16T08:59:39;3.15;;;1.80;;
21814;SDS011;11069;48.988;8.450;2023-07-16T09:02:06;2.90;;;1.45;;
21814;SDS011;11069;48.988;8.450;2023-07-16T09:04:32;3.60;;;1.48;;
21814;SDS011;11069;48.988;8.450;2023-07-16T09:06:58;4.78;;;1.60;;
21814;SDS011;11069;48.988;8.450;2023-07-16T09:09:24;5.70;;;1.60;;
21814;SDS011;11069;48.988;8.450;2023-07-16T09:11:50;2.58;;;1.55;;
21814;SDS011;11069;48.988;8.450;2023-07-16T09:14:19;5.38;;;1.42;;
21814;SDS011;11069;48.988;8.450;2023-07-16T09:16:49;3.92;;;1.85;;
21814;SDS011;11069;48.988;8.450;2023-07-16T09:19:18;2.88;;;1.85;;
21814;SDS011;11069;48.988;8.450;2023-07-16T09:21:48;2.72;;;1.63;;
21814;SDS011;11069;48.988;8.450;2023-07-16T09:24:14;4.70;;;1.85;;
21814;SDS011;11069;48.988;8.450;2023-07-16T09:26:58;4.65;;;1.75;;
21814;SDS011;11069;48.988;8.450;2023-07-16T09:29:26;3.75;;;1.70;;
21814;SDS011;11069;48.988;8.450;2023-07-16T09:31:53;3.17;;;1.70;;
21814;SDS011;11069;48.988;8.450;2023-07-16T09:36:51;3.53;;;1.50;;
21814;SDS011;11069;48.988;8.450;2023-07-16T09:39:17;3.85;;;1.77;;
21814;SDS011;11069;48.988;8.450;2023-07-16T09:41:47;3.90;;;1.58;;
21814;SDS011;11069;48.988;8.450;2023-07-16T09:44:14;2.33;;;1.30;;
21814;SDS011;11069;48.988;8.450;2023-07-16T09:46:40;4.05;;;1.80;;
21814;SDS011;11069;48.988;8.450;2023-07-16T09:49:07;4.28;;;1.83;;
21814;SDS011;11069;48.988;8.450;2023-07-16T09:51:32;4.03;;;1.30;;
21814;SDS011;11069;48.988;8.450;2023-07-16T09:54:01;2.53;;;1.17;;
21814;SDS011;11069;48.988;8.450;2023-07-16T09:56:28;2.45;;;1.70;;
21814;SDS011;11069;48.988;8.450;2023-07-16T09:59:10;5.05;;;2.13;;
21814;SDS011;11069;48.988;8.450;2023-07-16T10:01:38;6.65;;;1.90;;
21814;SDS011;11069;48.988;8.450;2023-07-16T10:04:15;3.88;;;1.55;;
21814;SDS011;11069;48.988;8.450;2023-07-16T10:07:00;3.90;;;1.63;;
21814;SDS011;11069;48.988;8.450;2023-07-16T10:09:37;4.53;;;1.70;;
21814;SDS011;11069;48.988;8.450;2023-07-16T10:12:15;5.72;;;1.60;;
21814;SDS011;11069;48.988;8.450;2023-07-16T10:14:44;3.88;;;1.50;;
21814;SDS011;11069;48.988;8.450;2023-07-16T10:17:23;3.08;;;1.40;;
21814;SDS011;11069;48.988;8.450;2023-07-16T10:19:50;4.15;;;1.83;;
21814;SDS011;11069;48.988;8.450;2023-07-16T10:25:01;4.03;;;1.60;;
21814;SDS011;11069;48.988;8.450;2023-07-16T10:27:51;5.15;;;1.73;;
21814;SDS011;11069;48.988;8.450;2023-07-16T10:30:18;5.25;;;1.38;;
21814;SDS011;11069;48.988;8.450;2023-07-16T10:32:44;3.65;;;1.65;;
21814;SDS011;11069;48.988;8.450;2023-07-16T10:35:10;2.65;;;1.38;;
21814;SDS011;11069;48.988;8.450;2023-07-16T10:37:37;3.15;;;1.63;;
21814;SDS011;11069;48.988;8.450;2023-07-16T10:40:04;2.20;;;1.35;;
21814;SDS011;11069;48.988;8.450;2023-07-16T10:42:34;2.63;;;1.52;;
21814;SDS011;11069;48.988;8.450;2023-07-16T10:45:06;2.83;;;1.42;;
21814;SDS011;11069;48.988;8.450;2023-07-16T10:47:33;2.88;;;1.40;;
21814;SDS011;11069;48.988;8.450;2023-07-16T10:50:02;3.03;;;1.67;;
21814;SDS011;11069;48.988;8.450;2023-07-16T10:52:29;3.70;;;1.50;;
21814;SDS011;11069;48.988;8.450;2023-07-16T10:54:55;2.50;;;1.30;;
21814;SDS011;11069;48.988;8.450;2023-07-16T10:57:22;3.38;;;1.45;;
21814;SDS011;11069;48.988;8.450;2023-07-16T10:59:50;3.28;;;1.65;;
21814;SDS011;11069;48.988;8.450;2023-07-16T11:02:16;4.85;;;1.63;;
21814;SDS011;11069;48.988;8.450;2023-07-16T11:04:43;4.13;;;1.60;;
21814;SDS011;11069;48.988;8.450;2023-07-16T11:07:10;4.72;;;1.45;;
21814;SDS011;11069;48.988;8.450;2023-07-16T11:09:43;3.10;;;1.40;;
21814;SDS011;11069;48.988;8.450;2023-07-16T11:12:17;2.38;;;1.75;;
21814;SDS011;11069;48.988;8.450;2023-07-16T11:14:45;2.70;;;1.35;;
21814;SDS011;11069;48.988;8.450;2023-07-16T11:17:12;2.17;;;1.52;;
21814;SDS011;11069;48.988;8.450;2023-07-16T11:19:39;3.10;;;1.40;;
21814;SDS011;11069;48.988;8.450;2023-07-16T11:22:08;4.03;;;1.65;;
21814;SDS011;11069;48.988;8.450;2023-07-16T11:24:41;3.35;;;1.67;;
21814;SDS011;11069;48.988;8.450;2023-07-16T11:32:31;2.17;;;1.20;;
21814;SDS011;11069;48.988;8.450;2023-07-16T11:34:58;2.83;;;1.52;;
21814;SDS011;11069;48.988;8.450;2023-07-16T11:37:29;4.63;;;1.40;;
21814;SDS011;11069;48.988;8.450;2023-07-16T11:40:03;3.15;;;1.63;;
21814;SDS011;11069;48.988;8.450;2023-07-16T11:42:37;2.83;;;1.38;;
21814;SDS011;11069;48.988;8.450;2023-07-16T11:45:03;3.00;;;1.30;;
21814;SDS011;11069;48.988;8.450;2023-07-16T11:47:30;4.93;;;1.85;;
21814;SDS011;11069;48.988;8.450;2023-07-16T11:49:56;2.38;;;1.23;;
21814;SDS011;11069;48.988;8.450;2023-07-16T11:52:23;3.92;;;1.60;;
21814;SDS011;11069;48.988;8.450;2023-07-16T11:54:54;5.97;;;1.63;;
21814;SDS011;11069;48.988;8.450;2023-07-16T11:57:24;2.42;;;1.20;;
21814;SDS011;11069;48.988;8.450;2023-07-16T11:59:50;2.65;;;1.33;;
21814;SDS011;11069;48.988;8.450;2023-07-16T12:02:16;2.88;;;1.30;;
21814;SDS011;11069;48.988;8.450;2023-07-16T12:04:41;4.15;;;1.60;;
21814;SDS011;11069;48.988;8.450;2023-07-16T12:07:07;1.95;;;1.45;;
21814;SDS011;11069;48.988;8.450;2023-07-16T12:09:33;3.20;;;1.48;;
21814;SDS011;11069;48.988;8.450;2023-07-16T12:11:59;1.95;;;1.35;;
21814;SDS011;11069;48.988;8.450;2023-07-16T12:14:25;3.85;;;1.23;;
21814;SDS011;11069;48.988;8.450;2023-07-16T12:16:51;3.92;;;1.30;;
21814;SDS011;11069;48.988;8.450;2023-07-16T12:19:16;2.95;;;1.55;;
21814;SDS011;11069;48.988;8.450;2023-07-16T12:21:42;4.13;;;1.90;;
21814;SDS011;11069;48.988;8.450;2023-07-16T12:24:08;2.67;;;1.50;;
21814;SDS011;11069;48.988;8.450;2023-07-16T12:26:34;2.75;;;1.70;;
21814;SDS011;11069;48.988;8.450;2023-07-16T12:29:00;3.67;;;2.08;;
21814;SDS011;11069;48.988;8.450;2023-07-16T12:31:27;3.63;;;1.80;;
21814;SDS011;11069;48.988;8.450;2023-07-16T12:33:53;3.78;;;1.52;;
21814;SDS011;11069;48.988;8.450;2023-07-16T12:36:19;5.35;;;1.50;;
21814;SDS011;11069;48.988;8.450;2023-07-16T12:38:44;3.65;;;1.67;;
21814;SDS011;11069;48.988;8.450;2023-07-16T12:41:10;2.58;;;1.42;;
21814;SDS011;11069;48.988;8.450;2023-07-16T12:43:40;2.88;;;1.60;;
21814;SDS011;11069;48.988;8.450;2023-07-16T12:46:05;2.78;;;1.25;;
21814;SDS011;11069;48.988;8.450;2023-07-16T12:48:31;2.10;;;1.30;;
21814;SDS011;11069;48.988;8.450;2023-07-16T12:50:57;2.83;;;1.50;;
21814;SDS011;11069;48.988;8.450;2023-07-16T12:53:23;2.40;;;1.10;;
21814;SDS011;11069;48.988;8.450;2023-07-16T12:55:49;3.45;;;1.40;;
21814;SDS011;11069;48.988;8.450;2023-07-16T12:58:15;3.28;;;1.55;;
21814;SDS011;11069;48.988;8.450;2023-07-16T13:00:41;4.72;;;1.90;;
21814;SDS011;11069;48.988;8.450;2023-07-16T13:03:06;4.70;;;1.42;;
21814;SDS011;11069;48.988;8.450;2023-07-16T13:05:36;4.45;;;2.05;;
21814;SDS011;11069;48.988;8.450;2023-07-16T13:08:02;3.53;;;1.77;;
21814;SDS011;11069;48.988;8.450;2023-07-16T13:10:28;5.43;;;1.58;;
21814;SDS011;11069;48.988;8.450;2023-07-16T13:12:54;3.38;;;1.50;;
21814;SDS011;11069;48.988;8.450;2023-07-16T13:15:19;4.90;;;2.03;;
21814;SDS011;11069;48.988;8.450;2023-07-16T13:17:45;3.95;;;1.85;;
21814;SDS011;11069;48.988;8.450;2023-07-16T13:20:12;4.78;;;1.98;;
21814;SDS011;11069;48.988;8.450;2023-07-16T13:22:38;2.97;;;1.58;;
21814;SDS011;11069;48.988;8.450;2023-07-16T13:25:04;3.35;;;1.63;;
21814;SDS011;11069;48.988;8.450;2023-07-16T13:27:30;4.90;;;1.98;;
21814;SDS011;11069;48.988;8.450;2023-07-16T13:29:55;3.03;;;1.83;;
21814;SDS011;11069;48.988;8.450;2023-07-16T13:32:21;4.43;;;1.70;;
21814;SDS011;11069;48.988;8.450;2023-07-16T13:34:46;3.90;;;1.73;;
21814;SDS011;11069;48.988;8.450;2023-07-16T13:37:12;5.18;;;2.20;;
21814;SDS011;11069;48.988;8.450;2023-07-16T13:39:39;2.42;;;1.30;;
21814;SDS011;11069;48.988;8.450;2023-07-16T13:42:04;3.38;;;1.88;;
21814;SDS011;11069;48.988;8.450;2023-07-16T13:44:31;5.18;;;1.58;;
21814;SDS011;11069;48.988;8.450;2023-07-16T13:46:59;2.88;;;1.75;;
21814;SDS011;11069;48.988;8.450;2023-07-16T13:49:25;4.57;;;1.88;;
21814;SDS011;11069;48.988;8.450;2023-07-16T13:51:51;2.38;;;1.77;;
21814;SDS011;11069;48.988;8.450;2023-07-16T13:54:16;3.47;;;1.60;;
21814;SDS011;11069;48.988;8.450;2023-07-16T13:56:42;4.20;;;1.83;;
21814;SDS011;11069;48.988;8.450;2023-07-16T13:59:07;3.25;;;1.60;;
21814;SDS011;11069;48.988;8.450;2023-07-16T14:01:37;3.67;;;1.45;;
21814;SDS011;11069;48.988;8.450;2023-07-16T14:04:03;2.53;;;1.75;;
21814;SDS011;11069;48.988;8.450;2023-07-16T14:06:29;3.88;;;1.58;;
21814;SDS011;11069;48.988;8.450;2023-07-16T14:08:55;3.95;;;1.80;;
21814;SDS011;11069;48.988;8.450;2023-07-16T14:11:20;4.93;;;1.90;;
21814;SDS011;11069;48.988;8.450;2023-07-16T14:13:47;5.57;;;1.63;;
21814;SDS011;11069;48.988;8.450;2023-07-16T14:16:16;3.10;;;1.80;;
21814;SDS011;11069;48.988;8.450;2023-07-16T14:18:42;3.35;;;1.90;;
21814;SDS011;11069;48.988;8.450;2023-07-16T14:21:07;3.13;;;1.60;;
21814;SDS011;11069;48.988;8.450;2023-07-16T14:23:33;5.45;;;2.10;;
21814;SDS011;11069;48.988;8.450;2023-07-16T14:25:59;3.40;;;1.63;;
21814;SDS011;11069;48.988;8.450;2023-07-16T14:28:24;3.75;;;2.00;;
21814;SDS011;11069;48.988;8.450;2023-07-16T14:30:50;2.85;;;1.80;;
21814;SDS011;11069;48.988;8.450;2023-07-16T14:33:15;2.90;;;1.77;;
21814;SDS011;11069;48.988;8.450;2023-07-16T14:35:41;2.10;;;1.67;;
21814;SDS011;11069;48.988;8.450;2023-07-16T14:38:07;4.35;;;2.00;;
21814;SDS011;11069;48.988;8.450;2023-07-16T14:40:32;4.03;;;1.98;;
21814;SDS011;11069;48.988;8.450;2023-07-16T14:42:58;7.80;;;2.00;;
21814;SDS011;11069;48.988;8.450;2023-07-16T14:45:23;2.85;;;1.40;;
21814;SDS011;11069;48.988;8.450;2023-07-16T14:47:49;4.20;;;1.80;;
21814;SDS011;11069;48.988;8.450;2023-07-16T14:50:15;3.90;;;1.45;;
21814;SDS011;11069;48.988;8.450;2023-07-16T14:52:40;5.03;;;2.28;;
21814;SDS011;11069;48.988;8.450;2023-07-16T14:55:06;2.72;;;1.70;;
21814;SDS011;11069;48.988;8.450;2023-07-16T14:57:33;3.88;;;1.70;;
21814;SDS011;11069;48.988;8.450;2023-07-16T14:59:59;2.90;;;1.73;;
21814;SDS011;11069;48.988;8.450;2023-07-16T15:02:25;3.17;;;1.67;;
21814;SDS011;11069;48.988;8.450;2023-07-16T15:04:50;2.53;;;1.67;;